Time;durP1;ratioP1;P1;durP2;ratioP2;P2;SDS_P1;SDS_P2;PMS_P1;PMS_P2;Temp;Humidity;BMP_temperature;BMP_pressure;BME280_temperature;BME280_humidity;BME280_pressure;Samples;Min_cycle;Max_cycle;Signal;HPM_P1;HPM_P2
2022/05/21 00:02:13;;;;;;;24.87;5.17;;;13.50;99.90;;;;;;4972930;28;20208;-84
2022/05/21 00:04:41;;;;;;;19.23;5.37;;;13.50;99.90;;;;;;4971612;28;20209;-83
2022/05/21 00:07:08;;;;;;;20.63;4.63;;;13.50;99.90;;;;;;4981156;28;20223;-85
2022/05/21 00:09:35;;;;;;;21.70;4.30;;;13.50;99.90;;;;;;4992381;28;20854;-83
2022/05/21 00:12:02;;;;;;;17.77;4.17;;;13.50;99.90;;;;;;4991752;28;20211;-83
2022/05/21 00:14:30;;;;;;;11.37;3.63;;;13.50;99.90;;;;;;4974810;28;20217;-84
2022/05/21 00:16:58;;;;;;;13.43;3.57;;;13.50;99.90;;;;;;4972207;28;20201;-82
2022/05/21 00:19:25;;;;;;;20.57;5.30;;;13.50;99.90;;;;;;4982229;28;20216;-82
2022/05/21 00:21:52;;;;;;;17.33;5.03;;;13.50;99.90;;;;;;4991965;28;20203;-81
2022/05/21 00:24:19;;;;;;;15.37;4.20;;;13.50;99.90;;;;;;4991643;28;20192;-81
2022/05/21 00:26:47;;;;;;;13.80;3.97;;;13.50;99.90;;;;;;4990087;28;20224;-82
2022/05/21 00:29:14;;;;;;;19.47;4.40;;;13.50;99.90;;;;;;4991857;28;20717;-83
2022/05/21 00:31:41;;;;;;;18.57;5.00;;;13.50;99.90;;;;;;4991121;28;20204;-83
2022/05/21 00:34:09;;;;;;;23.73;5.20;;;13.50;99.90;;;;;;4960504;28;20635;-82
2022/05/21 00:36:36;;;;;;;17.40;5.40;;;13.50;99.90;;;;;;4952731;29;20209;-78
2022/05/21 00:39:03;;;;;;;21.50;4.80;;;13.50;99.90;;;;;;4952581;29;20202;-84
2022/05/21 00:41:31;;;;;;;19.90;4.70;;;13.50;99.90;;;;;;4971720;28;20231;-84
2022/05/21 00:43:59;;;;;;;19.93;4.83;;;13.50;99.90;;;;;;4971724;28;20272;-82
2022/05/21 00:46:29;;;;;;;21.83;4.40;;;13.50;99.90;;;;;;4954349;28;20212;-84
2022/05/21 00:49:05;;;;;;;20.43;5.63;;;13.40;99.90;;;;;;4952295;29;20263;-83
2022/05/21 00:51:37;;;;;;;19.47;4.77;;;13.40;99.90;;;;;;4952010;29;20204;-83
2022/05/21 00:54:05;;;;;;;22.20;5.90;;;13.40;99.90;;;;;;4970440;28;20215;-83
2022/05/21 00:56:35;;;;;;;23.23;4.47;;;13.40;99.90;;;;;;4967740;28;20248;-80
2022/05/21 01:01:53;;;;;;;21.70;5.30;;;13.40;99.90;;;;;;4950479;28;20216;-84
2022/05/21 01:04:20;;;;;;;23.23;5.40;;;13.40;99.90;;;;;;4968893;28;20247;-80
2022/05/21 01:06:49;;;;;;;22.13;5.73;;;13.40;99.90;;;;;;4969645;28;20208;-81
2022/05/21 01:09:15;;;;;;;22.90;5.13;;;13.40;99.90;;;;;;4970280;28;20232;-82
2022/05/21 01:11:42;;;;;;;26.23;6.63;;;13.40;99.90;;;;;;4971339;28;20212;-83
2022/05/21 01:14:12;;;;;;;22.07;5.87;;;13.40;99.90;;;;;;4969829;28;20201;-82
2022/05/21 01:16:39;;;;;;;23.20;6.27;;;13.40;99.90;;;;;;4967306;28;20523;-84
2022/05/21 01:19:08;;;;;;;25.67;7.50;;;13.40;99.90;;;;;;4951011;29;20608;-84
2022/05/21 01:21:36;;;;;;;24.20;7.67;;;13.40;99.90;;;;;;4960807;28;20651;-84
2022/05/21 01:24:05;;;;;;;27.57;8.23;;;13.40;99.90;;;;;;4970105;28;20267;-81
2022/05/21 01:26:34;;;;;;;29.20;8.30;;;13.40;99.90;;;;;;4969748;28;20986;-83
2022/05/21 01:29:03;;;;;;;31.63;8.50;;;13.40;99.90;;;;;;4970704;28;20232;-83
2022/05/21 01:31:32;;;;;;;31.77;8.47;;;13.40;99.90;;;;;;4970612;28;20197;-84
2022/05/21 01:33:59;;;;;;;26.50;8.97;;;13.50;99.90;;;;;;4988800;28;20294;-83
2022/05/21 01:36:27;;;;;;;32.00;9.13;;;13.50;99.90;;;;;;4989920;28;20458;-84
2022/05/21 01:38:53;;;;;;;30.23;8.20;;;13.50;99.90;;;;;;4989232;28;20207;-81
2022/05/21 01:41:22;;;;;;;36.07;9.50;;;13.50;99.90;;;;;;4989982;28;20227;-83
2022/05/21 01:46:32;;;;;;;26.47;7.67;;;13.50;99.90;;;;;;4990421;28;20198;-84
2022/05/21 01:48:59;;;;;;;25.00;7.13;;;13.50;99.90;;;;;;4989450;28;20278;-83
2022/05/21 01:51:26;;;;;;;25.30;6.60;;;13.50;99.90;;;;;;4976043;28;20216;-85
2022/05/21 01:53:53;;;;;;;20.07;5.57;;;13.50;99.90;;;;;;4982986;28;20226;-82
2022/05/21 01:56:21;;;;;;;19.60;5.27;;;13.50;99.90;;;;;;4989049;28;20203;-84
2022/05/21 01:58:48;;;;;;;18.20;5.40;;;13.50;99.90;;;;;;4989206;28;20192;-80
2022/05/21 02:01:15;;;;;;;25.03;6.10;;;13.50;99.90;;;;;;4989831;28;20211;-83
2022/05/21 02:03:42;;;;;;;23.30;6.20;;;13.60;99.90;;;;;;4989603;28;20299;-87
2022/05/21 02:06:09;;;;;;;19.67;6.20;;;13.50;99.90;;;;;;4990412;28;20275;-82
2022/05/21 02:08:36;;;;;;;26.23;6.77;;;13.50;99.90;;;;;;4990350;28;20227;-82
2022/05/21 02:11:04;;;;;;;27.90;5.87;;;13.50;99.90;;;;;;4990361;28;20200;-83
2022/05/21 02:13:35;;;;;;;18.93;4.93;;;13.60;99.90;;;;;;4985384;28;20201;-83
2022/05/21 02:16:02;;;;;;;21.77;6.37;;;13.60;99.90;;;;;;4974533;28;20235;-86
2022/05/21 02:18:29;;;;;;;23.87;6.20;;;13.50;99.90;;;;;;4980894;28;20200;-83
2022/05/21 02:20:56;;;;;;;20.97;5.13;;;13.60;99.90;;;;;;4994242;28;20200;-82
2022/05/21 02:23:23;;;;;;;25.30;5.13;;;13.60;99.90;;;;;;4993056;28;20196;-89
2022/05/21 02:25:50;;;;;;;25.00;5.00;;;13.60;99.90;;;;;;4981922;28;20212;-82
2022/05/21 02:28:17;;;;;;;22.30;5.77;;;13.60;99.90;;;;;;4975326;28;20224;-86
2022/05/21 02:30:46;;;;;;;27.17;6.10;;;13.50;99.90;;;;;;4975444;28;20208;-85
2022/05/21 02:33:13;;;;;;;21.57;4.63;;;13.50;99.90;;;;;;4974827;28;20251;-83
2022/05/21 02:35:40;;;;;;;24.87;5.30;;;13.50;99.90;;;;;;4994661;28;20212;-84
2022/05/21 02:40:52;;;;;;;23.47;4.57;;;13.40;99.90;;;;;;4995547;28;20203;-87
2022/05/21 02:43:19;;;;;;;21.70;4.97;;;13.50;99.90;;;;;;4994387;28;20216;-84
2022/05/21 02:45:47;;;;;;;20.33;4.77;;;13.40;99.90;;;;;;4994196;28;20969;-80
2022/05/21 02:48:14;;;;;;;21.23;5.83;;;13.40;99.90;;;;;;4993764;28;20259;-84
2022/05/21 02:50:42;;;;;;;27.83;5.90;;;13.40;99.90;;;;;;4993115;28;20211;-81
2022/05/21 02:53:15;;;;;;;29.53;6.73;;;13.30;99.90;;;;;;5001590;28;20278;-84
2022/05/21 02:55:42;;;;;;;19.40;5.00;;;13.30;99.90;;;;;;5007305;28;20430;-78
2022/05/21 02:58:09;;;;;;;24.57;5.73;;;13.30;99.90;;;;;;4988538;28;20215;-82
2022/05/21 03:00:35;;;;;;;19.43;4.63;;;13.30;99.90;;;;;;4993402;28;20263;-80
2022/05/21 03:03:04;;;;;;;18.17;4.63;;;13.30;99.90;;;;;;4996216;28;20215;-79
2022/05/21 03:05:31;;;;;;;17.47;4.50;;;13.30;99.90;;;;;;4996212;28;20242;-82
2022/05/21 03:08:00;;;;;;;17.13;4.37;;;13.30;99.90;;;;;;4978888;28;20651;-80
2022/05/21 03:10:29;;;;;;;18.60;4.53;;;13.30;99.90;;;;;;4972114;28;20722;-84
2022/05/21 03:12:58;;;;;;;19.90;5.43;;;13.30;99.90;;;;;;4989396;28;20266;-86
2022/05/21 03:15:34;;;;;;;19.90;4.73;;;13.30;99.90;;;;;;4990491;28;20204;-83
2022/05/21 03:18:03;;;;;;;16.50;4.63;;;13.30;99.90;;;;;;4990983;28;20199;-78
2022/05/21 03:20:30;;;;;;;21.47;5.30;;;13.30;99.90;;;;;;4973325;28;20611;-83
2022/05/21 03:22:57;;;;;;;23.70;5.07;;;13.30;99.90;;;;;;4971697;28;20239;-85
2022/05/21 03:25:24;;;;;;;21.20;5.47;;;13.30;99.90;;;;;;4972152;28;20243;-87
2022/05/21 03:27:51;;;;;;;22.47;5.90;;;13.30;99.90;;;;;;4972099;28;20260;-81
2022/05/21 03:30:21;;;;;;;17.67;5.33;;;13.30;99.90;;;;;;4987937;28;20239;-80
2022/05/21 03:32:48;;;;;;;23.63;4.70;;;13.30;99.90;;;;;;4991651;28;20334;-84
2022/05/21 03:35:17;;;;;;;20.50;4.77;;;13.30;99.90;;;;;;4990973;28;20215;-84
2022/05/21 03:37:44;;;;;;;14.23;3.70;;;13.30;99.90;;;;;;4989519;28;20204;-80
2022/05/21 03:40:16;;;;;;;15.97;3.93;;;13.30;99.90;;;;;;4992284;28;20199;-83
2022/05/21 03:42:42;;;;;;;23.53;5.30;;;13.30;99.90;;;;;;4991197;28;20203;-82
2022/05/21 03:45:10;;;;;;;20.33;4.20;;;13.30;99.90;;;;;;4991558;28;20200;-84
2022/05/21 03:47:38;;;;;;;12.13;4.07;;;13.30;99.90;;;;;;4990944;28;20592;-78
2022/05/21 03:50:06;;;;;;;18.43;4.17;;;13.30;99.90;;;;;;4977405;28;20208;-85
2022/05/21 03:52:34;;;;;;;21.83;4.83;;;13.30;99.90;;;;;;4971205;28;20212;-82
2022/05/21 03:55:01;;;;;;;22.23;4.57;;;13.30;99.90;;;;;;4978463;28;20207;-81
2022/05/21 03:57:28;;;;;;;22.63;4.97;;;13.30;99.90;;;;;;4990227;28;20200;-82
2022/05/21 03:59:57;;;;;;;23.43;5.83;;;13.30;99.90;;;;;;4990187;28;20291;-80
2022/05/21 04:02:24;;;;;;;17.53;3.90;;;13.30;99.90;;;;;;4982421;28;20205;-79
2022/05/21 04:04:50;;;;;;;20.33;5.67;;;13.30;99.90;;;;;;4972238;28;20201;-83
2022/05/21 04:07:17;;;;;;;19.50;4.37;;;13.30;99.90;;;;;;4971525;28;20205;-83
2022/05/21 04:09:45;;;;;;;21.70;5.20;;;13.30;99.90;;;;;;4971204;28;20507;-80
2022/05/21 04:12:12;;;;;;;17.73;4.60;;;13.40;99.90;;;;;;4971156;28;20543;-83
2022/05/21 04:14:39;;;;;;;16.43;4.93;;;13.40;99.90;;;;;;4971512;28;20204;-84
2022/05/21 04:17:10;;;;;;;19.43;4.93;;;13.40;99.90;;;;;;4970753;28;20805;-78
2022/05/21 04:19:39;;;;;;;18.83;4.60;;;13.40;99.90;;;;;;4970761;28;20213;-79
2022/05/21 04:22:06;;;;;;;22.10;4.93;;;13.40;99.90;;;;;;4970693;28;20228;-83
2022/05/21 04:24:33;;;;;;;19.60;5.43;;;13.40;99.90;;;;;;4970964;28;20204;-82
2022/05/21 04:27:01;;;;;;;22.70;4.90;;;13.40;99.90;;;;;;4978888;28;20235;-85
2022/05/21 04:29:28;;;;;;;20.97;4.60;;;13.50;99.90;;;;;;4991637;28;20235;-81
2022/05/21 04:31:54;;;;;;;16.57;4.40;;;13.50;99.90;;;;;;4991165;28;20218;-85
2022/05/21 04:34:21;;;;;;;16.23;4.73;;;13.50;99.90;;;;;;4991022;28;20218;-86
2022/05/21 04:36:48;;;;;;;20.80;4.67;;;13.50;99.90;;;;;;4990596;28;20211;-88
2022/05/21 04:39:15;;;;;;;16.23;4.43;;;13.50;99.90;;;;;;4992214;28;20219;-85
2022/05/21 04:41:41;;;;;;;12.53;3.77;;;13.50;99.90;;;;;;4989860;28;20513;-83
2022/05/21 04:44:09;;;;;;;18.80;4.67;;;13.50;99.90;;;;;;4989816;28;20203;-85
2022/05/21 04:46:36;;;;;;;18.97;4.87;;;13.50;99.90;;;;;;4991644;28;20196;-83
2022/05/21 04:49:04;;;;;;;18.70;5.63;;;13.50;99.90;;;;;;4991266;28;20224;-85
2022/05/21 04:51:32;;;;;;;19.43;4.70;;;13.50;99.90;;;;;;4991588;28;20674;-84
2022/05/21 04:53:59;;;;;;;14.20;3.97;;;13.50;99.90;;;;;;4990382;28;20394;-85
2022/05/21 04:56:25;;;;;;;11.30;4.13;;;13.50;99.90;;;;;;4992283;28;20200;-82
2022/05/21 04:58:52;;;;;;;12.53;3.57;;;13.50;99.90;;;;;;4991058;28;20222;-83
2022/05/21 05:01:21;;;;;;;16.23;3.60;;;13.50;99.90;;;;;;4991590;28;20197;-85
2022/05/21 05:03:48;;;;;;;20.13;4.20;;;13.50;99.90;;;;;;4992333;28;20196;-86
2022/05/21 05:06:14;;;;;;;21.27;3.60;;;13.50;99.90;;;;;;4976209;28;20213;-81
2022/05/21 05:08:41;;;;;;;17.47;3.87;;;13.60;99.90;;;;;;4972740;28;20231;-84
2022/05/21 05:11:08;;;;;;;18.87;3.83;;;13.60;99.90;;;;;;4971430;28;20732;-82
2022/05/21 05:13:35;;;;;;;16.70;3.77;;;13.60;99.90;;;;;;4971874;28;20212;-83
2022/05/21 05:16:02;;;;;;;16.43;3.60;;;13.60;99.90;;;;;;4972213;28;20573;-83
2022/05/21 05:18:30;;;;;;;14.17;4.23;;;13.60;99.90;;;;;;4989258;28;20211;-86
2022/05/21 05:20:57;;;;;;;14.93;4.30;;;13.60;99.90;;;;;;4991967;28;20203;-85
2022/05/21 05:23:24;;;;;;;17.23;4.43;;;13.80;99.90;;;;;;4991478;28;20210;-86
2022/05/21 05:25:52;;;;;;;15.70;4.13;;;14.00;99.90;;;;;;4986936;28;20349;-84
2022/05/21 05:28:22;;;;;;;21.33;4.67;;;14.30;99.90;;;;;;4971292;28;20216;-85
2022/05/21 05:30:50;;;;;;;30.73;4.80;;;14.60;99.90;;;;;;4972473;28;20196;-84
2022/05/21 05:33:17;;;;;;;18.97;3.90;;;14.80;99.90;;;;;;4972535;28;20587;-83
2022/05/21 05:35:48;;;;;;;20.13;3.97;;;15.10;99.90;;;;;;4980304;28;20218;-83
2022/05/21 05:38:15;;;;;;;18.47;4.60;;;15.40;99.90;;;;;;4990647;28;20215;-83
2022/05/21 05:40:46;;;;;;;18.63;4.97;;;15.50;99.90;;;;;;4990856;28;20227;-87
2022/05/21 05:43:13;;;;;;;20.70;5.07;;;15.80;99.90;;;;;;4991059;28;20584;-82
2022/05/21 05:45:40;;;;;;;18.77;4.67;;;16.00;99.90;;;;;;4991560;28;20498;-83
2022/05/21 05:48:07;;;;;;;19.90;5.30;;;16.20;99.90;;;;;;4990627;28;20508;-85
2022/05/21 05:50:34;;;;;;;20.70;5.17;;;16.30;99.90;;;;;;4995691;28;20199;-88
2022/05/21 05:53:03;;;;;;;13.87;4.47;;;16.50;99.90;;;;;;4978227;28;20215;-84
2022/05/21 05:55:31;;;;;;;14.80;3.90;;;16.60;99.90;;;;;;4975873;28;20212;-85
2022/05/21 05:57:59;;;;;;;15.70;4.03;;;16.60;99.90;;;;;;4976614;28;20204;-84
2022/05/21 06:00:26;;;;;;;16.35;4.78;;;16.70;99.90;;;;;;4979769;28;20204;-87
2022/05/21 06:02:59;;;;;;;14.93;3.80;;;16.90;99.90;;;;;;4997359;28;20210;-86
2022/05/21 06:05:27;;;;;;;13.63;4.03;;;17.00;99.90;;;;;;4995384;28;20212;-86
2022/05/21 06:07:56;;;;;;;16.13;4.20;;;17.10;99.90;;;;;;4995094;28;20196;-87
2022/05/21 06:10:26;;;;;;;16.23;4.78;;;17.20;99.90;;;;;;4990670;28;20219;-86
2022/05/21 06:12:53;;;;;;;18.25;5.35;;;17.30;99.90;;;;;;4984573;28;20209;-86
2022/05/21 06:15:20;;;;;;;20.38;4.47;;;17.40;99.90;;;;;;4971426;28;20511;-88
2022/05/21 06:17:49;;;;;;;15.43;3.92;;;17.70;99.90;;;;;;4990094;28;20204;-87
2022/05/21 06:20:18;;;;;;;18.15;4.30;;;17.80;99.90;;;;;;4994212;28;20572;-87
2022/05/21 06:22:46;;;;;;;17.38;4.32;;;17.90;99.90;;;;;;4995404;28;20211;-86
2022/05/21 06:25:17;;;;;;;17.73;4.50;;;17.90;99.90;;;;;;4994225;28;20589;-86
2022/05/21 06:27:46;;;;;;;13.35;4.60;;;18.10;99.90;;;;;;4994704;28;20239;-85
2022/05/21 06:30:13;;;;;;;17.55;4.20;;;18.20;99.90;;;;;;4994520;28;20223;-83
2022/05/21 06:32:40;;;;;;;18.98;4.32;;;18.10;99.90;;;;;;4994148;28;20228;-88
2022/05/21 06:35:08;;;;;;;15.23;3.75;;;18.10;99.90;;;;;;4994226;28;20219;-82
2022/05/21 06:37:35;;;;;;;17.15;4.53;;;18.30;99.90;;;;;;4993534;28;20599;-85
2022/05/21 06:40:02;;;;;;;14.88;3.80;;;18.40;99.90;;;;;;4994023;28;20515;-83
2022/05/21 06:42:29;;;;;;;19.15;4.20;;;18.50;99.90;;;;;;4994605;28;20204;-84
2022/05/21 06:44:57;;;;;;;18.88;3.95;;;18.60;99.90;;;;;;4994083;28;20203;-80
2022/05/21 06:47:24;;;;;;;14.52;4.32;;;18.80;99.90;;;;;;4992595;28;20212;-82
2022/05/21 06:49:53;;;;;;;17.98;4.07;;;18.60;99.90;;;;;;4992671;28;20534;-84
2022/05/21 06:52:20;;;;;;;18.00;5.13;;;18.60;99.90;;;;;;4992918;28;20200;-79
2022/05/21 06:54:47;;;;;;;13.98;3.60;;;18.50;99.90;;;;;;4992888;28;20204;-84
2022/05/21 06:57:14;;;;;;;15.90;3.67;;;18.40;99.90;;;;;;4992563;28;20831;-86
2022/05/21 06:59:41;;;;;;;15.90;3.78;;;18.40;99.90;;;;;;4992166;28;20204;-82
2022/05/21 07:02:09;;;;;;;15.25;4.07;;;18.20;99.90;;;;;;4993860;28;20603;-87
2022/05/21 07:07:35;;;;;;;17.15;4.03;;;18.40;99.90;;;;;;4970290;28;20314;-91
2022/05/21 07:10:05;;;;;;;10.40;3.45;;;18.60;99.90;;;;;;4992724;28;20641;-89
2022/05/21 07:12:33;;;;;;;15.15;3.63;;;18.70;99.90;;;;;;4993153;28;20216;-89
2022/05/21 07:15:00;;;;;;;19.02;4.63;;;18.80;99.90;;;;;;4992584;28;20211;-91
2022/05/21 07:17:28;;;;;;;16.98;4.35;;;18.90;99.90;;;;;;4993583;28;20217;-89
2022/05/21 07:19:56;;;;;;;16.20;4.60;;;19.00;99.90;;;;;;4978886;28;20483;-86
2022/05/21 07:22:23;;;;;;;14.18;4.30;;;19.00;99.90;;;;;;4993505;28;20238;-86
2022/05/21 07:24:50;;;;;;;16.80;3.80;;;19.00;99.90;;;;;;4991723;28;20203;-81
2022/05/21 07:27:17;;;;;;;14.10;4.35;;;19.00;99.90;;;;;;4993182;28;20230;-93
2022/05/21 07:29:45;;;;;;;13.10;3.70;;;19.20;99.90;;;;;;4994417;28;20223;-88
2022/05/21 07:32:19;;;;;;;16.00;3.78;;;19.00;99.90;;;;;;4994762;28;20303;-93
2022/05/21 07:34:48;;;;;;;19.25;4.00;;;19.00;99.90;;;;;;4995440;28;20199;-83
2022/05/21 07:37:16;;;;;;;19.08;3.97;;;19.00;99.90;;;;;;4989658;28;20224;-85
2022/05/21 07:39:43;;;;;;;15.70;3.67;;;18.90;99.90;;;;;;4993592;28;20200;-86
2022/05/21 07:42:09;;;;;;;17.65;4.10;;;18.70;99.90;;;;;;4994469;28;20204;-93
2022/05/21 07:44:36;;;;;;;16.17;4.68;;;18.40;99.90;;;;;;4993591;28;20256;-87
2022/05/21 07:47:03;;;;;;;15.18;3.35;;;18.40;99.90;;;;;;4992537;28;20215;-91
2022/05/21 07:49:30;;;;;;;14.93;3.92;;;18.40;99.90;;;;;;4990189;28;20228;-90
2022/05/21 07:51:59;;;;;;;17.98;4.40;;;18.50;99.90;;;;;;4990985;28;20208;-92
2022/05/21 07:54:26;;;;;;;13.00;4.00;;;18.40;99.90;;;;;;4993691;28;20231;-90
2022/05/21 07:56:53;;;;;;;17.25;5.13;;;18.20;99.90;;;;;;4993354;28;20207;-90
2022/05/21 07:59:20;;;;;;;16.17;4.63;;;18.10;99.90;;;;;;4992852;28;20232;-87
2022/05/21 08:01:47;;;;;;;13.75;3.78;;;18.10;99.90;;;;;;4991965;28;20215;-89
2022/05/21 08:04:14;;;;;;;16.00;4.07;;;18.50;99.90;;;;;;4992397;28;20196;-79
2022/05/21 08:06:41;;;;;;;15.27;4.25;;;18.80;99.90;;;;;;4973399;28;20208;-84
2022/05/21 08:09:09;;;;;;;14.13;3.63;;;19.20;99.90;;;;;;4972906;28;20608;-90
2022/05/21 08:11:36;;;;;;;16.83;4.82;;;19.40;99.90;;;;;;4972132;28;20597;-79
2022/05/21 08:14:03;;;;;;;20.02;4.60;;;19.50;99.90;;;;;;4985537;28;20338;-80
2022/05/21 08:16:30;;;;;;;15.73;4.03;;;19.60;99.90;;;;;;4993252;28;20457;-92
2022/05/21 08:18:57;;;;;;;12.73;3.05;;;19.70;99.90;;;;;;4991689;28;20258;-87
2022/05/21 08:21:24;;;;;;;18.50;4.78;;;19.90;99.90;;;;;;4991183;28;20200;-81
2022/05/21 08:26:59;;;;;;;13.88;4.00;;;20.10;99.90;;;;;;4991437;28;20226;-84
2022/05/21 08:29:27;;;;;;;14.05;4.57;;;20.00;99.90;;;;;;4992634;28;20615;-88
2022/05/21 08:31:55;;;;;;;13.05;3.72;;;20.10;99.90;;;;;;4993022;28;20211;-85
2022/05/21 08:34:22;;;;;;;14.52;3.78;;;19.90;99.90;;;;;;4992489;28;20629;-85
2022/05/21 08:36:49;;;;;;;22.30;4.60;;;20.00;99.90;;;;;;4990962;28;20207;-85
2022/05/21 08:39:16;;;;;;;16.15;4.53;;;20.20;99.90;;;;;;4992514;28;20249;-85
2022/05/21 08:41:53;;;;;;;17.30;3.80;;;20.20;99.90;;;;;;4979708;28;20655;-86
2022/05/21 08:44:27;;;;;;;16.27;4.78;;;20.10;99.90;;;;;;4978648;28;20204;-92
2022/05/21 08:47:03;;;;;;;14.68;3.95;;;20.10;99.90;;;;;;4993661;28;20536;-87
2022/05/21 08:49:36;;;;;;;13.52;4.13;;;20.10;99.90;;;;;;4993150;28;20240;-94
2022/05/21 08:52:14;;;;;;;14.05;4.15;;;20.10;99.90;;;;;;4992765;28;20222;-87
2022/05/21 08:54:44;;;;;;;18.95;3.85;;;20.00;99.90;;;;;;4979607;28;20275;-88
2022/05/21 08:57:16;;;;;;;19.27;4.25;;;20.10;99.90;;;;;;4975178;28;20211;-88
2022/05/21 08:59:49;;;;;;;16.27;4.10;;;19.80;99.90;;;;;;4974773;28;20193;-91
2022/05/21 09:02:28;;;;;;;16.38;3.97;;;19.30;99.90;;;;;;4984467;23;20220;-92
2022/05/21 09:04:55;;;;;;;12.82;3.58;;;19.30;99.90;;;;;;4974292;28;20219;-88
2022/05/21 09:07:28;;;;;;;16.52;4.32;;;19.40;99.90;;;;;;4975092;28;20208;-89
2022/05/21 09:10:11;;;;;;;15.27;4.28;;;19.50;99.90;;;;;;4974862;28;20220;-89
2022/05/21 09:12:45;;;;;;;13.48;3.72;;;19.30;99.90;;;;;;4982989;28;20204;-85
2022/05/21 09:16:54;;;;;;;17.42;3.78;;;19.40;99.90;;;;;;4987981;28;20977;-81
2022/05/21 09:18:08;;;;;;;12.38;3.55;;;19.50;99.90;;;;;;4988559;28;20260;-84
2022/05/21 09:20:49;;;;;;;14.98;3.80;;;19.60;99.90;;;;;;4989170;28;20209;-81
2022/05/21 09:23:15;;;;;;;16.08;4.30;;;19.90;99.90;;;;;;4984383;28;20280;-84
2022/05/21 09:25:42;;;;;;;13.35;4.05;;;20.10;99.90;;;;;;4982537;28;20230;-79
2022/05/21 09:28:12;;;;;;;17.05;4.28;;;20.20;99.90;;;;;;4968955;28;20223;-85
2022/05/21 09:30:41;;;;;;;14.88;4.43;;;20.10;99.90;;;;;;4932018;29;20236;-90
2022/05/21 09:33:27;;;;;;;17.60;3.78;;;20.10;99.90;;;;;;4931381;29;20202;-84
2022/05/21 09:35:56;;;;;;;18.23;4.30;;;20.50;99.90;;;;;;4932261;29;20217;-88
2022/05/21 09:38:25;;;;;;;14.70;4.13;;;20.30;99.90;;;;;;4937214;29;20224;-85
2022/05/21 09:41:12;;;;;;;15.15;4.45;;;19.80;99.90;;;;;;4951453;29;20200;-88
2022/05/21 09:46:34;;;;;;;15.07;4.05;;;19.50;99.90;;;;;;4950550;28;20224;-82
2022/05/21 09:49:17;;;;;;;17.45;4.15;;;19.40;99.90;;;;;;4949751;29;20205;-87
2022/05/21 09:51:53;;;;;;;12.68;3.72;;;19.50;99.90;;;;;;4950035;29;20260;-91
2022/05/21 09:54:22;;;;;;;14.43;4.00;;;19.70;99.90;;;;;;4949198;29;20558;-85
2022/05/21 09:56:52;;;;;;;13.43;3.83;;;19.70;99.90;;;;;;4948734;29;20220;-90
2022/05/21 09:59:22;;;;;;;16.00;4.15;;;19.70;99.90;;;;;;4951473;28;20209;-92
2022/05/21 10:01:53;;;;;;;13.48;4.07;;;19.50;99.90;;;;;;4951190;29;20853;-91
2022/05/21 10:04:27;;;;;;;13.75;3.97;;;19.30;99.90;;;;;;4950618;29;20299;-91
2022/05/21 10:06:58;;;;;;;16.67;3.97;;;19.10;99.90;;;;;;4949970;29;20217;-87
2022/05/21 10:12:22;;;;;;;18.60;4.00;;;19.10;99.90;;;;;;4951758;29;20200;-89
2022/05/21 10:14:55;;;;;;;13.20;4.18;;;19.30;99.90;;;;;;4961530;28;20210;-82
2022/05/21 10:17:29;;;;;;;14.88;4.00;;;19.50;99.90;;;;;;4960383;28;20213;-88
2022/05/21 10:20:04;;;;;;;17.27;4.20;;;19.60;99.90;;;;;;4950527;29;20201;-92
2022/05/21 10:22:39;;;;;;;12.50;3.53;;;19.60;99.90;;;;;;4950723;28;20208;-88
2022/05/21 10:25:08;;;;;;;12.52;3.67;;;19.50;99.90;;;;;;4951698;28;20197;-89
2022/05/21 10:27:52;;;;;;;15.38;4.20;;;19.50;99.90;;;;;;4952169;29;20225;-92
2022/05/21 10:30:26;;;;;;;14.68;4.32;;;19.70;99.90;;;;;;4952113;29;20300;-88
2022/05/21 10:33:16;;;;;;;14.98;3.75;;;19.90;99.90;;;;;;4951213;29;20198;-84
2022/05/21 10:35:57;;;;;;;19.67;4.32;;;19.90;99.90;;;;;;4952063;28;20236;-87
2022/05/21 10:38:37;;;;;;;14.77;4.03;;;20.00;99.90;;;;;;4955451;29;20256;-86
2022/05/21 10:41:10;;;;;;;15.18;4.00;;;19.90;99.90;;;;;;4955756;29;20201;-89
2022/05/21 10:43:58;;;;;;;13.02;4.32;;;19.90;99.90;;;;;;4953630;29;20201;-89
2022/05/21 10:46:39;;;;;;;16.70;4.07;;;19.90;99.90;;;;;;4955153;29;20652;-80
2022/05/21 10:49:36;;;;;;;14.57;4.47;;;20.00;99.90;;;;;;4954601;29;20201;-83
2022/05/21 10:52:11;;;;;;;13.85;4.10;;;20.10;99.90;;;;;;4954376;28;20628;-89
2022/05/21 10:55:02;;;;;;;11.70;3.92;;;20.10;99.90;;;;;;4955141;28;20464;-88
2022/05/21 10:57:43;;;;;;;13.10;3.63;;;19.90;99.90;;;;;;4954486;29;20240;-87
2022/05/21 11:00:14;;;;;;;17.00;4.50;;;19.90;99.90;;;;;;4952594;28;20190;-87
2022/05/21 11:03:08;;;;;;;16.35;5.03;;;20.00;99.90;;;;;;4950214;29;20249;-89
2022/05/21 11:06:04;;;;;;;17.15;4.65;;;20.10;99.90;;;;;;4952849;29;20516;-86
2022/05/21 11:08:42;;;;;;;12.55;3.65;;;20.30;99.90;;;;;;4935691;29;20229;-86
2022/05/21 11:11:13;;;;;;;10.27;3.65;;;20.10;99.90;;;;;;4944685;29;20236;-81
2022/05/21 11:13:47;;;;;;;12.38;4.07;;;20.10;99.90;;;;;;4952507;29;20602;-85
2022/05/21 11:16:22;;;;;;;11.75;4.63;;;20.10;99.90;;;;;;4954912;28;20213;-90
2022/05/21 11:18:55;;;;;;;16.48;4.35;;;20.20;99.90;;;;;;4953949;29;20581;-86
2022/05/21 11:21:27;;;;;;;13.15;4.20;;;20.10;99.90;;;;;;4955143;29;20297;-82
2022/05/21 11:23:59;;;;;;;15.07;4.13;;;20.00;99.90;;;;;;4952299;29;20210;-85
2022/05/21 11:26:38;;;;;;;18.52;4.35;;;20.00;99.90;;;;;;4953133;29;20222;-84
2022/05/21 11:29:11;;;;;;;14.90;4.45;;;20.20;99.90;;;;;;4969127;28;20209;-84
2022/05/21 11:37:22;;;;;;;13.77;4.20;;;20.80;99.90;;;;;;4965434;28;20620;-86
2022/05/21 11:39:51;;;;;;;13.55;3.90;;;20.80;99.90;;;;;;4953505;29;20256;-82
2022/05/21 11:42:20;;;;;;;14.05;4.10;;;20.90;99.90;;;;;;4952993;29;20212;-86
2022/05/21 11:44:59;;;;;;;12.25;3.92;;;21.10;99.90;;;;;;4951777;29;20213;-86
2022/05/21 11:48:04;;;;;;;14.30;4.20;;;21.20;99.90;;;;;;4952520;28;20209;-83
2022/05/21 11:50:32;;;;;;;12.80;3.95;;;21.20;99.90;;;;;;4949100;29;20236;-87
2022/05/21 11:53:06;;;;;;;13.52;3.70;;;21.40;99.90;;;;;;4952154;29;20534;-85
2022/05/21 11:55:56;;;;;;;12.45;3.70;;;21.50;99.90;;;;;;4952332;29;20657;-86
2022/05/21 11:58:27;;;;;;;11.93;3.88;;;21.60;99.90;;;;;;4953391;28;20209;-86
2022/05/21 12:00:54;;;;;;;11.10;3.55;;;21.50;99.90;;;;;;4958479;28;20750;-80
2022/05/21 12:03:24;;;;;;;12.38;3.75;;;21.50;99.90;;;;;;4971609;28;20255;-86
2022/05/21 12:05:58;;;;;;;13.07;3.33;;;21.40;99.90;;;;;;4967095;28;20212;-81
2022/05/21 12:08:47;;;;;;;17.52;4.22;;;21.40;99.90;;;;;;4972146;28;20933;-80
2022/05/21 12:11:43;;;;;;;11.43;3.35;;;21.40;99.90;;;;;;4971544;28;20228;-83
2022/05/21 12:14:27;;;;;;;14.82;4.18;;;21.30;99.90;;;;;;4964196;28;20264;-88
2022/05/21 12:17:00;;;;;;;10.65;3.47;;;21.10;99.90;;;;;;4952831;29;20251;-88
2022/05/21 12:20:06;;;;;;;11.70;3.55;;;21.10;99.90;;;;;;4951719;29;20218;-85
2022/05/21 12:22:44;;;;;;;10.98;3.47;;;20.90;99.90;;;;;;4952384;29;20215;-87
2022/05/21 12:25:58;;;;;;;11.57;3.83;;;20.80;99.90;;;;;;4938217;29;20577;-88
2022/05/21 12:28:45;;;;;;;9.68;3.63;;;20.80;99.90;;;;;;4951650;28;20205;-89
2022/05/21 12:31:15;;;;;;;9.02;3.17;;;20.90;99.90;;;;;;4953471;29;20225;-85
2022/05/21 12:33:50;;;;;;;13.52;3.65;;;21.00;99.90;;;;;;4954223;29;20201;-89
2022/05/21 12:36:32;;;;;;;15.95;4.35;;;21.10;99.90;;;;;;4933269;29;20217;-87
2022/05/21 12:39:03;;;;;;;15.45;4.22;;;21.30;99.90;;;;;;4930515;29;20198;-88
2022/05/21 12:41:36;;;;;;;15.32;5.65;;;21.40;99.90;;;;;;4945190;29;20684;-88
2022/05/21 12:44:03;;;;;;;12.57;4.18;;;21.30;99.90;;;;;;4953900;29;20205;-83
2022/05/21 12:46:33;;;;;;;27.50;6.82;;;21.40;99.90;;;;;;4973352;28;20279;-85
2022/05/21 12:49:04;;;;;;;14.20;4.07;;;21.60;99.90;;;;;;4964298;28;20538;-90
2022/05/21 12:51:34;;;;;;;13.25;4.18;;;21.50;99.90;;;;;;4952873;29;20617;-81
2022/05/21 12:54:07;;;;;;;10.88;3.47;;;21.40;99.90;;;;;;4952271;29;20220;-86
2022/05/21 12:56:36;;;;;;;12.23;3.80;;;21.20;99.90;;;;;;4951858;29;20220;-87
2022/05/21 12:59:06;;;;;;;8.88;3.05;;;21.10;99.90;;;;;;4949797;28;20216;-87
2022/05/21 13:01:34;;;;;;;10.18;3.42;;;21.00;99.90;;;;;;4950162;29;20276;-84
2022/05/21 13:04:01;;;;;;;9.20;3.13;;;20.90;99.90;;;;;;4950335;28;20232;-83
2022/05/21 13:06:31;;;;;;;12.23;3.45;;;20.80;99.90;;;;;;4951580;29;20224;-86
2022/05/21 13:09:00;;;;;;;14.57;3.85;;;20.90;99.90;;;;;;4946130;28;20202;-87
2022/05/21 13:11:36;;;;;;;13.95;3.40;;;20.80;99.90;;;;;;4931944;29;20246;-84
2022/05/21 13:14:10;;;;;;;13.68;3.30;;;20.60;99.90;;;;;;4946776;28;20224;-84
2022/05/21 13:16:48;;;;;;;10.48;4.70;;;20.40;99.90;;;;;;4969742;28;20196;-88
2022/05/21 13:19:33;;;;;;;16.70;4.53;;;20.40;99.90;;;;;;4959537;28;20212;-80
2022/05/21 13:22:09;;;;;;;16.10;4.32;;;20.20;99.90;;;;;;4949874;29;20197;-84